Time;durP1;ratioP1;P1;durP2;ratioP2;P2;SDS_P1;SDS_P2;PMS_P1;PMS_P2;Temp;Humidity;BMP_temperature;BMP_pressure;BME280_temperature;BME280_humidity;BME280_pressure;Samples;Min_cycle;Max_cycle;Signal;HPM_P1;HPM_P2
2021/04/14 00:02:05;;;;;;;;;;;;;;;;;;5063847;28;19915;-79
2021/04/14 00:04:31;;;;;;;;;;;;;;;;;;5077653;28;19923;-78
2021/04/14 00:06:58;;;;;;;;;;;;;;;;;;5043173;28;20002;-78
2021/04/14 00:09:23;;;;;;;;;;;;;;;;;;5060089;28;19916;-79
2021/04/14 00:11:50;;;;;;;;;;;;;;;;;;5059778;28;19919;-78
2021/04/14 00:14:16;;;;;;;;;;;;;;;;;;5080779;28;19961;-78
2021/04/14 00:16:41;;;;;;;;;;;;;;;;;;5079693;28;19947;-79
2021/04/14 00:19:07;;;;;;;;;;;;;;;;;;5079865;28;19957;-78
2021/04/14 00:21:33;;;;;;;;;;;;;;;;;;5079710;28;20000;-79
2021/04/14 00:23:58;;;;;;;;;;;;;;;;;;5079507;28;20336;-78
2021/04/14 00:26:23;;;;;;;;;;;;;;;;;;5095950;28;20376;-78
2021/04/14 00:28:49;;;;;;;;;;;;;;;;;;5079372;28;19960;-78
2021/04/14 00:31:15;;;;;;;;;;;;;;;;;;5062048;28;19935;-78
2021/04/14 00:33:40;;;;;;;;;;;;;;;;;;5075040;28;19924;-78
2021/04/14 00:36:06;;;;;;;;;;;;;;;;;;5075848;28;19916;-79
2021/04/14 00:38:31;;;;;;;;;;;;;;;;;;5059010;28;19919;-79
2021/04/14 00:41:01;;;;;;;;;;;;;;;;;;5092478;28;20293;-78
2021/04/14 00:43:28;;;;;;;;;;;;;;;;;;5059188;28;19912;-79
2021/04/14 00:45:53;;;;;;;;;;;;;;;;;;5058631;28;20011;-78
2021/04/14 00:48:18;;;;;;;;;;;;;;;;;;5075211;28;19951;-78
2021/04/14 00:50:44;;;;;;;;;;;;;;;;;;5081159;28;19919;-79
2021/04/14 00:53:09;;;;;;;;;;;;;;;;;;5058690;28;20011;-78
2021/04/14 00:55:34;;;;;;;;;;;;;;;;;;5058920;28;19916;-79
2021/04/14 00:58:00;;;;;;;;;;;;;;;;;;5058608;28;19916;-78
2021/04/14 01:00:32;;;;;;;;;;;;;;;;;;5058473;28;19930;-79
2021/04/14 01:02:58;;;;;;;;;;;;;;;;;;5049841;28;20003;-78
2021/04/14 01:05:23;;;;;;;;;;;;;;;;;;5075507;28;20027;-78
2021/04/14 01:07:49;;;;;;;;;;;;;;;;;;5075234;28;19916;-78
2021/04/14 01:10:14;;;;;;;;;;;;;;;;;;5075172;28;20742;-79
2021/04/14 01:12:40;;;;;;;;;;;;;;;;;;5075555;28;19923;-79
2021/04/14 01:15:06;;;;;;;;;;;;;;;;;;5078571;28;19916;-78
2021/04/14 01:17:31;;;;;;;;;;;;;;;;;;5078507;28;20544;-78
2021/04/14 01:19:57;;;;;;;;;;;;;;;;;;5078972;28;20010;-78
2021/04/14 01:22:22;;;;;;;;;;;;;;;;;;5078063;28;19919;-78
2021/04/14 01:24:47;;;;;;;;;;;;;;;;;;5095096;28;19920;-79
2021/04/14 01:27:13;;;;;;;;;;;;;;;;;;5074370;28;20324;-78
2021/04/14 01:29:39;;;;;;;;;;;;;;;;;;5074677;28;19912;-79
2021/04/14 01:32:04;;;;;;;;;;;;;;;;;;5058248;28;19924;-78
2021/04/14 01:34:29;;;;;;;;;;;;;;;;;;5074848;28;19937;-78
2021/04/14 01:36:55;;;;;;;;;;;;;;;;;;5091761;28;19924;-79
2021/04/14 01:39:20;;;;;;;;;;;;;;;;;;5091750;28;19912;-78
2021/04/14 01:41:45;;;;;;;;;;;;;;;;;;5074512;28;20484;-79
2021/04/14 01:44:11;;;;;;;;;;;;;;;;;;5091974;28;20007;-79
2021/04/14 01:46:39;;;;;;;;;;;;;;;;;;5091612;28;19998;-78
2021/04/14 01:49:05;;;;;;;;;;;;;;;;;;5094447;28;19918;-78
2021/04/14 01:51:30;;;;;;;;;;;;;;;;;;5079789;28;19946;-78
2021/04/14 01:53:55;;;;;;;;;;;;;;;;;;5094105;28;19915;-78
2021/04/14 01:56:21;;;;;;;;;;;;;;;;;;5094943;28;19922;-79
2021/04/14 01:58:46;;;;;;;;;;;;;;;;;;5076415;28;19957;-80
2021/04/14 02:01:12;;;;;;;;;;;;;;;;;;5076697;28;20273;-78
2021/04/14 02:03:38;;;;;;;;;;;;;;;;;;5077308;28;19922;-78
2021/04/14 02:06:07;;;;;;;;;;;;;;;;;;5074197;28;19916;-78
2021/04/14 02:08:33;;;;;;;;;;;;;;;;;;5073326;28;19956;-79
2021/04/14 02:10:58;;;;;;;;;;;;;;;;;;5074100;28;19952;-78
2021/04/14 02:13:24;;;;;;;;;;;;;;;;;;5057266;28;19916;-78
2021/04/14 02:15:50;;;;;;;;;;;;;;;;;;5092148;28;19961;-79
2021/04/14 02:18:15;;;;;;;;;;;;;;;;;;5077635;28;19915;-78
2021/04/14 02:20:40;;;;;;;;;;;;;;;;;;5077438;28;19912;-79
2021/04/14 02:23:11;;;;;;;;;;;;;;;;;;5094437;28;19912;-78
2021/04/14 02:25:37;;;;;;;;;;;;;;;;;;5094488;28;19912;-78
2021/04/14 02:28:03;;;;;;;;;;;;;;;;;;5094410;28;19918;-78
2021/04/14 02:30:28;;;;;;;;;;;;;;;;;;5077329;28;19915;-79
2021/04/14 02:32:54;;;;;;;;;;;;;;;;;;5060362;28;19968;-78
2021/04/14 02:35:19;;;;;;;;;;;;;;;;;;5094125;28;20254;-78
2021/04/14 02:37:45;;;;;;;;;;;;;;;;;;5094175;28;19965;-79
2021/04/14 02:40:10;;;;;;;;;;;;;;;;;;5094688;28;19916;-79
2021/04/14 02:42:36;;;;;;;;;;;;;;;;;;5094087;28;19918;-79
2021/04/14 02:45:02;;;;;;;;;;;;;;;;;;5094521;28;19918;-79
2021/04/14 02:47:27;;;;;;;;;;;;;;;;;;5094420;28;19977;-79
2021/04/14 02:49:52;;;;;;;;;;;;;;;;;;5094100;28;20365;-78
2021/04/14 02:52:18;;;;;;;;;;;;;;;;;;5077229;28;19912;-78
2021/04/14 02:54:43;;;;;;;;;;;;;;;;;;5077459;28;19915;-78
2021/04/14 02:57:08;;;;;;;;;;;;;;;;;;5077325;28;20033;-79
2021/04/14 02:59:34;;;;;;;;;;;;;;;;;;5094124;28;19918;-78
2021/04/14 03:01:59;;;;;;;;;;;;;;;;;;5060295;28;19932;-79
2021/04/14 03:04:25;;;;;;;;;;;;;;;;;;5042476;28;20037;-78
2021/04/14 03:06:50;;;;;;;;;;;;;;;;;;5056827;28;19917;-78
2021/04/14 03:09:15;;;;;;;;;;;;;;;;;;5073710;28;19912;-78
2021/04/14 03:11:41;;;;;;;;;;;;;;;;;;5074873;28;19918;-78
2021/04/14 03:14:06;;;;;;;;;;;;;;;;;;5081208;28;19919;-79
2021/04/14 03:16:31;;;;;;;;;;;;;;;;;;5081276;28;20002;-79
2021/04/14 03:18:56;;;;;;;;;;;;;;;;;;5080735;28;19937;-79
2021/04/14 03:21:22;;;;;;;;;;;;;;;;;;5080720;28;20273;-78
2021/04/14 03:23:47;;;;;;;;;;;;;;;;;;5098009;28;19919;-79
2021/04/14 03:26:13;;;;;;;;;;;;;;;;;;5080276;28;19955;-79
2021/04/14 03:28:38;;;;;;;;;;;;;;;;;;5097586;28;20388;-78
2021/04/14 03:31:03;;;;;;;;;;;;;;;;;;5080161;28;20408;-78
2021/04/14 03:33:28;;;;;;;;;;;;;;;;;;5096916;28;19973;-78
2021/04/14 03:35:54;;;;;;;;;;;;;;;;;;5060275;28;20006;-79
2021/04/14 03:38:19;;;;;;;;;;;;;;;;;;5060374;28;19962;-78
2021/04/14 03:40:44;;;;;;;;;;;;;;;;;;5076469;28;19916;-79
2021/04/14 03:43:10;;;;;;;;;;;;;;;;;;5076807;28;20015;-79
2021/04/14 03:45:41;;;;;;;;;;;;;;;;;;5077179;28;19959;-78
2021/04/14 03:48:07;;;;;;;;;;;;;;;;;;5060140;28;19918;-78
2021/04/14 03:50:32;;;;;;;;;;;;;;;;;;5059949;28;20030;-79
2021/04/14 03:53:27;;;;;;;;;;;;;;;;;;5076754;28;20418;-79
2021/04/14 03:55:57;;;;;;;;;;;;;;;;;;5050851;28;20289;-78
2021/04/14 03:58:22;;;;;;;;;;;;;;;;;;5076666;28;19912;-78
2021/04/14 04:00:52;;;;;;;;;;;;;;;;;;5059644;28;20343;-78
2021/04/14 04:03:17;;;;;;;;;;;;;;;;;;5081207;28;20019;-79
2021/04/14 04:05:43;;;;;;;;;;;;;;;;;;5059876;28;20015;-79
2021/04/14 04:08:08;;;;;;;;;;;;;;;;;;5076598;28;19963;-79
2021/04/14 04:10:34;;;;;;;;;;;;;;;;;;5042572;28;20408;-78
2021/04/14 04:12:59;;;;;;;;;;;;;;;;;;5043308;28;19912;-78
2021/04/14 04:15:24;;;;;;;;;;;;;;;;;;5090436;28;19922;-78
2021/04/14 04:17:50;;;;;;;;;;;;;;;;;;5096740;28;19916;-79
2021/04/14 04:20:15;;;;;;;;;;;;;;;;;;5079609;28;19923;-78
2021/04/14 04:22:40;;;;;;;;;;;;;;;;;;5078916;28;19969;-79
2021/04/14 04:25:06;;;;;;;;;;;;;;;;;;5062525;28;19915;-79
2021/04/14 04:27:32;;;;;;;;;;;;;;;;;;5079345;28;19923;-79
2021/04/14 04:29:57;;;;;;;;;;;;;;;;;;5079570;28;19916;-79
2021/04/14 04:32:22;;;;;;;;;;;;;;;;;;5079102;28;20372;-78
2021/04/14 04:34:47;;;;;;;;;;;;;;;;;;5059128;28;19912;-78
2021/04/14 04:37:13;;;;;;;;;;;;;;;;;;5078368;28;19915;-78
2021/04/14 04:39:40;;;;;;;;;;;;;;;;;;5078728;28;19937;-78
2021/04/14 04:42:05;;;;;;;;;;;;;;;;;;5078923;28;19988;-79
2021/04/14 04:44:30;;;;;;;;;;;;;;;;;;5096270;28;19916;-78
2021/04/14 04:46:56;;;;;;;;;;;;;;;;;;5079196;28;19955;-78
2021/04/14 04:49:21;;;;;;;;;;;;;;;;;;5079204;28;19919;-78
2021/04/14 04:51:46;;;;;;;;;;;;;;;;;;5079161;28;19918;-78
2021/04/14 04:54:12;;;;;;;;;;;;;;;;;;5095832;28;19912;-78
2021/04/14 04:56:37;;;;;;;;;;;;;;;;;;5078874;28;19911;-78
2021/04/14 04:59:02;;;;;;;;;;;;;;;;;;5078710;28;19912;-78
2021/04/14 05:01:28;;;;;;;;;;;;;;;;;;5078742;28;19963;-78
2021/04/14 05:03:53;;;;;;;;;;;;;;;;;;5048189;28;19926;-79
2021/04/14 05:06:19;;;;;;;;;;;;;;;;;;5058700;28;19989;-78
2021/04/14 05:08:44;;;;;;;;;;;;;;;;;;5075287;28;20007;-78
2021/04/14 05:11:09;;;;;;;;;;;;;;;;;;5058579;28;19916;-79
2021/04/14 05:13:35;;;;;;;;;;;;;;;;;;5075186;28;19931;-78
2021/04/14 05:16:00;;;;;;;;;;;;;;;;;;5094263;28;19916;-78
2021/04/14 05:18:25;;;;;;;;;;;;;;;;;;5061978;28;19916;-78
2021/04/14 05:20:51;;;;;;;;;;;;;;;;;;5078265;28;19919;-79
2021/04/14 05:23:16;;;;;;;;;;;;;;;;;;5060216;28;19918;-78
2021/04/14 05:25:42;;;;;;;;;;;;;;;;;;5058669;28;19916;-80
2021/04/14 05:28:12;;;;;;;;;;;;;;;;;;5075775;28;19916;-79
2021/04/14 05:30:37;;;;;;;;;;;;;;;;;;5078103;28;20377;-79
2021/04/14 05:33:07;;;;;;;;;;;;;;;;;;5060904;28;19922;-79
2021/04/14 05:35:32;;;;;;;;;;;;;;;;;;5076564;28;19919;-78
2021/04/14 05:37:57;;;;;;;;;;;;;;;;;;5078021;28;19911;-79
2021/04/14 05:40:23;;;;;;;;;;;;;;;;;;5078418;28;19956;-80
2021/04/14 05:42:48;;;;;;;;;;;;;;;;;;5077893;28;19960;-79
2021/04/14 05:45:15;;;;;;;;;;;;;;;;;;5061476;28;20006;-79
2021/04/14 05:47:40;;;;;;;;;;;;;;;;;;5095099;28;20403;-79
2021/04/14 05:50:06;;;;;;;;;;;;;;;;;;5077805;28;19951;-81
2021/04/14 05:52:32;;;;;;;;;;;;;;;;;;5060780;28;19911;-80
2021/04/14 05:54:57;;;;;;;;;;;;;;;;;;5077761;28;20262;-81
2021/04/14 05:57:22;;;;;;;;;;;;;;;;;;5077605;28;19935;-80
2021/04/14 05:59:48;;;;;;;;;;;;;;;;;;5061297;28;19965;-80
2021/04/14 06:02:13;;;;;;;;;;;;;;;;;;5077469;28;19919;-80
2021/04/14 06:04:38;;;;;;;;;;;;;;;;;;5077195;28;19923;-80
2021/04/14 06:07:03;;;;;;;;;;;;;;;;;;5094111;28;20010;-80
2021/04/14 06:09:29;;;;;;;;;;;;;;;;;;5094164;28;20493;-80
2021/04/14 06:11:54;;;;;;;;;;;;;;;;;;5093533;28;19919;-81
2021/04/14 06:14:19;;;;;;;;;;;;;;;;;;5089177;28;19970;-80
2021/04/14 06:16:44;;;;;;;;;;;;;;;;;;5057471;28;20393;-80
2021/04/14 06:19:11;;;;;;;;;;;;;;;;;;5074052;28;19916;-80
2021/04/14 06:21:36;;;;;;;;;;;;;;;;;;5074058;28;20461;-80
2021/04/14 06:24:02;;;;;;;;;;;;;;;;;;5074319;28;20425;-80
2021/04/14 06:28:54;;;;;;;;;;;;;;;;;;5074070;28;19916;-80
2021/04/14 06:31:20;;;;;;;;;;;;;;;;;;5073689;28;20006;-80
2021/04/14 06:33:48;;;;;;;;;;;;;;;;;;5056667;28;20351;-80
2021/04/14 06:36:13;;;;;;;;;;;;;;;;;;5110229;28;20007;-80
2021/04/14 06:38:46;;;;;;;;;;;;;;;;;;5093955;28;19986;-80
2021/04/14 06:44:03;;;;;;;;;;;;;;;;;;5078912;28;20002;-80
2021/04/14 06:46:30;;;;;;;;;;;;;;;;;;5078204;28;20387;-80
2021/04/14 06:49:18;;;;;;;;;;;;;;;;;;5081252;28;20073;-80
2021/04/14 06:52:04;;;;;;;;;;;;;;;;;;5105344;28;19912;-80
2021/04/14 06:54:48;;;;;;;;;;;;;;;;;;5081250;28;19916;-79
2021/04/14 06:57:18;;;;;;;;;;;;;;;;;;5067541;28;19916;-80
2021/04/14 06:59:44;;;;;;;;;;;;;;;;;;5061285;28;19918;-80
2021/04/14 07:02:13;;;;;;;;;;;;;;;;;;5076565;28;19930;-80
2021/04/14 07:04:41;;;;;;;;;;;;;;;;;;5096809;28;20519;-80
2021/04/14 07:07:08;;;;;;;;;;;;;;;;;;5097095;28;19999;-79
2021/04/14 07:09:35;;;;;;;;;;;;;;;;;;5081029;28;19916;-80
2021/04/14 07:12:00;;;;;;;;;;;;;;;;;;5080719;28;20040;-80
2021/04/14 07:14:26;;;;;;;;;;;;;;;;;;5074646;28;19922;-79
2021/04/14 07:16:54;;;;;;;;;;;;;;;;;;5060436;28;19978;-80
2021/04/14 07:19:23;;;;;;;;;;;;;;;;;;5076983;28;19912;-80
2021/04/14 07:21:50;;;;;;;;;;;;;;;;;;5060505;28;19919;-80
2021/04/14 07:24:30;;;;;;;;;;;;;;;;;;5060995;28;19920;-80
2021/04/14 07:26:56;;;;;;;;;;;;;;;;;;5043386;28;19916;-80
2021/04/14 07:29:37;;;;;;;;;;;;;;;;;;5076682;28;19961;-82
2021/04/14 07:32:05;;;;;;;;;;;;;;;;;;5043070;28;19970;-82
2021/04/14 07:34:34;;;;;;;;;;;;;;;;;;5060918;28;20019;-82
2021/04/14 07:37:03;;;;;;;;;;;;;;;;;;5076243;28;19912;-89
2021/04/14 07:39:42;;;;;;;;;;;;;;;;;;5076233;28;19923;-80
2021/04/14 07:42:14;;;;;;;;;;;;;;;;;;5077133;28;19958;-82
2021/04/14 07:44:47;;;;;;;;;;;;;;;;;;5076784;28;19961;-81
2021/04/14 07:47:12;;;;;;;;;;;;;;;;;;5059782;28;19912;-81
2021/04/14 07:49:38;;;;;;;;;;;;;;;;;;5060097;28;19911;-81
2021/04/14 07:52:08;;;;;;;;;;;;;;;;;;5076630;28;20132;-81
2021/04/14 07:54:41;;;;;;;;;;;;;;;;;;5078108;28;20010;-81
2021/04/14 07:57:06;;;;;;;;;;;;;;;;;;5059485;28;19934;-81
2021/04/14 07:59:32;;;;;;;;;;;;;;;;;;5059314;28;19920;-80
2021/04/14 08:02:02;;;;;;;;;;;;;;;;;;5077342;28;19926;-81
2021/04/14 08:04:27;;;;;;;;;;;;;;;;;;5062977;28;20319;-81
2021/04/14 08:06:52;;;;;;;;;;;;;;;;;;5079827;28;19912;-81
2021/04/14 08:09:20;;;;;;;;;;;;;;;;;;5079759;28;20364;-80
2021/04/14 08:11:46;;;;;;;;;;;;;;;;;;5063365;28;20006;-82
2021/04/14 08:14:22;;;;;;;;;;;;;;;;;;5076184;28;19999;-82
2021/04/14 08:16:49;;;;;;;;;;;;;;;;;;5076294;28;19962;-81
2021/04/14 08:19:17;;;;;;;;;;;;;;;;;;5076556;28;19916;-81
2021/04/14 08:22:01;;;;;;;;;;;;;;;;;;5096313;28;19912;-81
2021/04/14 08:24:28;;;;;;;;;;;;;;;;;;5079465;28;19960;-81
2021/04/14 08:26:55;;;;;;;;;;;;;;;;;;5079328;28;19926;-81
2021/04/14 08:29:21;;;;;;;;;;;;;;;;;;5062455;28;19964;-81
2021/04/14 08:31:50;;;;;;;;;;;;;;;;;;5058983;28;19920;-80
2021/04/14 08:34:26;;;;;;;;;;;;;;;;;;5048010;28;19966;-81
2021/04/14 08:36:55;;;;;;;;;;;;;;;;;;5074298;28;20048;-82
2021/04/14 08:39:40;;;;;;;;;;;;;;;;;;5095784;28;19920;-82
2021/04/14 08:42:07;;;;;;;;;;;;;;;;;;5095905;28;19919;-82
2021/04/14 08:44:33;;;;;;;;;;;;;;;;;;5058318;28;19923;-81
2021/04/14 08:47:15;;;;;;;;;;;;;;;;;;5076425;28;20374;-82
2021/04/14 08:49:41;;;;;;;;;;;;;;;;;;5075202;28;19973;-81
2021/04/14 08:52:08;;;;;;;;;;;;;;;;;;5075719;28;19912;-81
2021/04/14 08:54:34;;;;;;;;;;;;;;;;;;5090311;28;19930;-81
2021/04/14 08:57:03;;;;;;;;;;;;;;;;;;5063196;28;20024;-80
2021/04/14 08:59:28;;;;;;;;;;;;;;;;;;5061625;28;19912;-81
2021/04/14 09:01:54;;;;;;;;;;;;;;;;;;5061509;28;19919;-80
2021/04/14 09:04:19;;;;;;;;;;;;;;;;;;5066368;28;19920;-80
2021/04/14 09:06:45;;;;;;;;;;;;;;;;;;5043325;28;19961;-80
2021/04/14 09:09:14;;;;;;;;;;;;;;;;;;5040300;28;20006;-80
2021/04/14 09:11:42;;;;;;;;;;;;;;;;;;5058867;28;19918;-80
2021/04/14 09:14:18;;;;;;;;;;;;;;;;;;5062056;28;19912;-80
2021/04/14 09:17:02;;;;;;;;;;;;;;;;;;5078703;28;19961;-80
2021/04/14 09:19:32;;;;;;;;;;;;;;;;;;5095056;28;19912;-80
2021/04/14 09:21:59;;;;;;;;;;;;;;;;;;5077989;28;19912;-80
2021/04/14 09:24:43;;;;;;;;;;;;;;;;;;5078412;28;20018;-79
2021/04/14 09:27:32;;;;;;;;;;;;;;;;;;5095494;28;19912;-80
2021/04/14 09:29:59;;;;;;;;;;;;;;;;;;5084449;28;19919;-80
2021/04/14 09:32:53;;;;;;;;;;;;;;;;;;5095016;28;19926;-80
2021/04/14 09:35:21;;;;;;;;;;;;;;;;;;5077145;28;20014;-80
2021/04/14 09:37:46;;;;;;;;;;;;;;;;;;5078485;28;19911;-80
2021/04/14 09:40:12;;;;;;;;;;;;;;;;;;5095081;28;19918;-80
2021/04/14 09:42:43;;;;;;;;;;;;;;;;;;5094113;28;19919;-80
2021/04/14 09:45:16;;;;;;;;;;;;;;;;;;5078465;28;19959;-80
2021/04/14 09:47:42;;;;;;;;;;;;;;;;;;5061144;28;20002;-80
2021/04/14 09:50:27;;;;;;;;;;;;;;;;;;5077473;28;20245;-79
2021/04/14 09:52:53;;;;;;;;;;;;;;;;;;5094748;28;19912;-80
2021/04/14 09:55:25;;;;;;;;;;;;;;;;;;5077739;28;19912;-79
2021/04/14 09:57:50;;;;;;;;;;;;;;;;;;5077766;28;19918;-80
2021/04/14 10:00:27;;;;;;;;;;;;;;;;;;5094755;28;19919;-80
2021/04/14 10:02:59;;;;;;;;;;;;;;;;;;5074342;28;20393;-80
2021/04/14 10:05:27;;;;;;;;;;;;;;;;;;5074434;28;19916;-80
2021/04/14 10:07:53;;;;;;;;;;;;;;;;;;5040845;28;20332;-80
2021/04/14 10:10:19;;;;;;;;;;;;;;;;;;5074132;28;19916;-80
2021/04/14 10:12:45;;;;;;;;;;;;;;;;;;5074144;28;19916;-79
2021/04/14 10:15:10;;;;;;;;;;;;;;;;;;5086280;28;20377;-80
2021/04/14 10:17:35;;;;;;;;;;;;;;;;;;5056784;28;19916;-80
2021/04/14 10:20:14;;;;;;;;;;;;;;;;;;5063552;28;19912;-80
2021/04/14 10:22:40;;;;;;;;;;;;;;;;;;5093481;28;19911;-80
2021/04/14 10:25:09;;;;;;;;;;;;;;;;;;5077368;28;19916;-80
2021/04/14 10:27:34;;;;;;;;;;;;;;;;;;5093678;28;20335;-80
2021/04/14 10:30:00;;;;;;;;;;;;;;;;;;5093970;28;19916;-80
2021/04/14 10:32:27;;;;;;;;;;;;;;;;;;5085646;28;19966;-80
2021/04/14 10:34:52;;;;;;;;;;;;;;;;;;5081791;28;19926;-80
2021/04/14 10:37:19;;;;;;;;;;;;;;;;;;5094033;28;20365;-81
2021/04/14 10:39:44;;;;;;;;;;;;;;;;;;5094108;28;19916;-80
2021/04/14 10:42:14;;;;;;;;;;;;;;;;;;5093898;28;19912;-80
2021/04/14 10:44:39;;;;;;;;;;;;;;;;;;5093901;28;19918;-80
2021/04/14 10:47:06;;;;;;;;;;;;;;;;;;5094101;28;19912;-80
2021/04/14 10:49:32;;;;;;;;;;;;;;;;;;5077180;28;20408;-80
2021/04/14 10:52:09;;;;;;;;;;;;;;;;;;5093875;28;19912;-80
2021/04/14 10:54:35;;;;;;;;;;;;;;;;;;5060255;28;19916;-80
2021/04/14 10:57:04;;;;;;;;;;;;;;;;;;5076875;28;20346;-80
2021/04/14 10:59:29;;;;;;;;;;;;;;;;;;5059715;28;19916;-80
2021/04/14 11:01:55;;;;;;;;;;;;;;;;;;5060019;28;19935;-80
2021/04/14 11:04:34;;;;;;;;;;;;;;;;;;5076601;28;19920;-80
2021/04/14 11:07:04;;;;;;;;;;;;;;;;;;5060437;28;19912;-80
2021/04/14 11:09:30;;;;;;;;;;;;;;;;;;5072974;28;19917;-80
2021/04/14 11:11:55;;;;;;;;;;;;;;;;;;5056557;28;20340;-80
2021/04/14 11:14:20;;;;;;;;;;;;;;;;;;5079240;28;20323;-80
2021/04/14 11:16:46;;;;;;;;;;;;;;;;;;5056726;28;19916;-80
2021/04/14 11:19:15;;;;;;;;;;;;;;;;;;5090495;28;19912;-80
2021/04/14 11:21:42;;;;;;;;;;;;;;;;;;5092777;28;19955;-81
2021/04/14 11:24:16;;;;;;;;;;;;;;;;;;5093667;28;19916;-79
2021/04/14 11:26:51;;;;;;;;;;;;;;;;;;5093950;28;19919;-79
2021/04/14 11:29:32;;;;;;;;;;;;;;;;;;5111860;28;20405;-79
2021/04/14 11:31:59;;;;;;;;;;;;;;;;;;5076459;28;19916;-78
2021/04/14 11:34:28;;;;;;;;;;;;;;;;;;5066303;28;19924;-79
2021/04/14 11:36:53;;;;;;;;;;;;;;;;;;5061082;28;19927;-78
2021/04/14 11:39:19;;;;;;;;;;;;;;;;;;5076865;28;19912;-79
2021/04/14 11:41:47;;;;;;;;;;;;;;;;;;5060362;28;19916;-79
2021/04/14 11:44:14;;;;;;;;;;;;;;;;;;5060109;28;19934;-78
2021/04/14 11:46:40;;;;;;;;;;;;;;;;;;5086264;28;20289;-78
2021/04/14 11:49:08;;;;;;;;;;;;;;;;;;5069136;28;19916;-78
2021/04/14 11:51:35;;;;;;;;;;;;;;;;;;5077798;28;19919;-79
2021/04/14 11:54:05;;;;;;;;;;;;;;;;;;5076794;28;19916;-79
2021/04/14 11:56:33;;;;;;;;;;;;;;;;;;5076314;28;19920;-79
2021/04/14 11:58:58;;;;;;;;;;;;;;;;;;5076864;28;19969;-78
2021/04/14 12:01:26;;;;;;;;;;;;;;;;;;5059971;28;19916;-79
2021/04/14 12:03:51;;;;;;;;;;;;;;;;;;5095320;28;19924;-79
2021/04/14 12:06:17;;;;;;;;;;;;;;;;;;5064289;28;20296;-79
2021/04/14 12:08:42;;;;;;;;;;;;;;;;;;5077539;28;19943;-78
2021/04/14 12:11:14;;;;;;;;;;;;;;;;;;5096420;28;20010;-79
2021/04/14 12:13:39;;;;;;;;;;;;;;;;;;5096765;28;19912;-79
2021/04/14 12:16:05;;;;;;;;;;;;;;;;;;5082531;28;19946;-78
2021/04/14 12:18:30;;;;;;;;;;;;;;;;;;5089035;28;19968;-79
2021/04/14 12:20:55;;;;;;;;;;;;;;;;;;5096108;28;19950;-78
2021/04/14 12:23:20;;;;;;;;;;;;;;;;;;5095605;28;20009;-79
2021/04/14 12:25:46;;;;;;;;;;;;;;;;;;5079181;28;19911;-79
2021/04/14 12:28:11;;;;;;;;;;;;;;;;;;5096254;28;19950;-79
2021/04/14 12:30:36;;;;;;;;;;;;;;;;;;5078787;28;19920;-79
2021/04/14 12:33:02;;;;;;;;;;;;;;;;;;5062266;28;19916;-79
2021/04/14 12:35:27;;;;;;;;;;;;;;;;;;5075463;28;19916;-79
2021/04/14 12:37:52;;;;;;;;;;;;;;;;;;5059168;28;20373;-79
2021/04/14 12:40:18;;;;;;;;;;;;;;;;;;5042102;28;20400;-79
2021/04/14 12:42:43;;;;;;;;;;;;;;;;;;5058925;28;19916;-79
2021/04/14 12:45:28;;;;;;;;;;;;;;;;;;5075227;28;19916;-79
2021/04/14 12:47:53;;;;;;;;;;;;;;;;;;5075449;28;19918;-79
2021/04/14 12:50:19;;;;;;;;;;;;;;;;;;5058973;28;19912;-78
2021/04/14 12:52:44;;;;;;;;;;;;;;;;;;5058617;28;19916;-78
2021/04/14 12:55:12;;;;;;;;;;;;;;;;;;5059108;28;19958;-79
2021/04/14 12:57:37;;;;;;;;;;;;;;;;;;5059083;28;19913;-78
2021/04/14 13:00:08;;;;;;;;;;;;;;;;;;5058944;28;19964;-78
2021/04/14 13:02:40;;;;;;;;;;;;;;;;;;5065915;28;19923;-78
2021/04/14 13:05:25;;;;;;;;;;;;;;;;;;5113828;28;19916;-79
2021/04/14 13:08:00;;;;;;;;;;;;;;;;;;5083036;28;20285;-82
2021/04/14 13:10:53;;;;;;;;;;;;;;;;;;5056025;28;19923;-80
2021/04/14 13:13:28;;;;;;;;;;;;;;;;;;5057311;28;20385;-79
2021/04/14 13:16:15;;;;;;;;;;;;;;;;;;5046195;28;19916;-79
2021/04/14 13:18:40;;;;;;;;;;;;;;;;;;5054587;28;20007;-78
2021/04/14 13:21:26;;;;;;;;;;;;;;;;;;5074591;28;19956;-79
2021/04/14 13:24:10;;;;;;;;;;;;;;;;;;5084516;28;19967;-79
2021/04/14 13:26:50;;;;;;;;;;;;;;;;;;5074393;28;20390;-80
2021/04/14 13:29:18;;;;;;;;;;;;;;;;;;5074687;28;20029;-78
2021/04/14 13:31:48;;;;;;;;;;;;;;;;;;5092898;28;19923;-79
2021/04/14 13:34:16;;;;;;;;;;;;;;;;;;5066574;28;20029;-80
2021/04/14 13:36:43;;;;;;;;;;;;;;;;;;5075171;28;19919;-80
2021/04/14 13:39:18;;;;;;;;;;;;;;;;;;5058157;28;19916;-80
2021/04/14 13:41:44;;;;;;;;;;;;;;;;;;5074278;28;20381;-79
2021/04/14 13:44:10;;;;;;;;;;;;;;;;;;5074747;28;19916;-80
2021/04/14 13:46:40;;;;;;;;;;;;;;;;;;5074579;28;19916;-79
2021/04/14 13:49:15;;;;;;;;;;;;;;;;;;5065180;28;19942;-80
2021/04/14 13:51:41;;;;;;;;;;;;;;;;;;5090827;28;19961;-79
2021/04/14 13:54:07;;;;;;;;;;;;;;;;;;5090899;28;19962;-80
2021/04/14 13:56:34;;;;;;;;;;;;;;;;;;5074643;28;19934;-80
2021/04/14 13:59:01;;;;;;;;;;;;;;;;;;5057532;28;19977;-81
2021/04/14 14:01:27;;;;;;;;;;;;;;;;;;5074081;28;19920;-79
2021/04/14 14:03:52;;;;;;;;;;;;;;;;;;5079282;28;20412;-79
2021/04/14 14:06:28;;;;;;;;;;;;;;;;;;5076930;28;19912;-80
2021/04/14 14:08:55;;;;;;;;;;;;;;;;;;5094914;28;19919;-83
2021/04/14 14:11:21;;;;;;;;;;;;;;;;;;5077449;28;19947;-81
2021/04/14 14:13:46;;;;;;;;;;;;;;;;;;5077846;28;20006;-80
2021/04/14 14:16:12;;;;;;;;;;;;;;;;;;5077689;28;20084;-80
2021/04/14 14:18:38;;;;;;;;;;;;;;;;;;5061300;28;20446;-81
2021/04/14 14:21:04;;;;;;;;;;;;;;;;;;5040420;28;20378;-80
2021/04/14 14:23:29;;;;;;;;;;;;;;;;;;5074307;28;20384;-81
2021/04/14 14:25:56;;;;;;;;;;;;;;;;;;5073769;28;19919;-81
2021/04/14 14:28:21;;;;;;;;;;;;;;;;;;5074140;28;19916;-80
2021/04/14 14:30:50;;;;;;;;;;;;;;;;;;5073928;28;20011;-80
2021/04/14 14:33:15;;;;;;;;;;;;;;;;;;5073269;28;20384;-81
2021/04/14 14:35:40;;;;;;;;;;;;;;;;;;5073842;28;20002;-80
2021/04/14 14:38:10;;;;;;;;;;;;;;;;;;5073607;28;19916;-80
2021/04/14 14:40:36;;;;;;;;;;;;;;;;;;5072403;28;19916;-81
2021/04/14 14:43:37;;;;;;;;;;;;;;;;;;5039645;28;19918;-80
2021/04/14 14:46:02;;;;;;;;;;;;;;;;;;5051151;28;19912;-81
2021/04/14 14:48:37;;;;;;;;;;;;;;;;;;5093700;28;19918;-80
2021/04/14 14:51:04;;;;;;;;;;;;;;;;;;5060379;28;19911;-80
2021/04/14 14:53:29;;;;;;;;;;;;;;;;;;5077079;28;19972;-81
2021/04/14 14:55:55;;;;;;;;;;;;;;;;;;5076710;28;19920;-81
2021/04/14 14:58:24;;;;;;;;;;;;;;;;;;5060558;28;20264;-81
2021/04/14 15:00:59;;;;;;;;;;;;;;;;;;5058308;28;19915;-84
2021/04/14 15:03:24;;;;;;;;;;;;;;;;;;5065741;28;19924;-80
2021/04/14 15:05:49;;;;;;;;;;;;;;;;;;5078234;28;20277;-79
2021/04/14 15:08:15;;;;;;;;;;;;;;;;;;5085927;28;19922;-78
2021/04/14 15:10:40;;;;;;;;;;;;;;;;;;5068260;28;19965;-79
2021/04/14 15:13:05;;;;;;;;;;;;;;;;;;5095646;28;20303;-79
2021/04/14 15:15:31;;;;;;;;;;;;;;;;;;5049094;28;19927;-80
2021/04/14 15:17:56;;;;;;;;;;;;;;;;;;5085793;28;19920;-79
2021/04/14 15:20:24;;;;;;;;;;;;;;;;;;5053922;28;19916;-79
2021/04/14 15:22:49;;;;;;;;;;;;;;;;;;5061156;28;19916;-79
2021/04/14 15:25:15;;;;;;;;;;;;;;;;;;5092996;28;19923;-78
2021/04/14 15:27:40;;;;;;;;;;;;;;;;;;5076257;28;19921;-79
2021/04/14 15:30:08;;;;;;;;;;;;;;;;;;5075505;28;19916;-79
2021/04/14 15:32:33;;;;;;;;;;;;;;;;;;5093321;28;19920;-79
2021/04/14 15:34:58;;;;;;;;;;;;;;;;;;5077235;28;20438;-79
2021/04/14 15:37:25;;;;;;;;;;;;;;;;;;5080680;28;19912;-79
2021/04/14 15:39:50;;;;;;;;;;;;;;;;;;5080256;28;19918;-79
2021/04/14 15:42:17;;;;;;;;;;;;;;;;;;5079942;28;20293;-80
2021/04/14 15:44:42;;;;;;;;;;;;;;;;;;5059553;28;19912;-80
2021/04/14 15:47:07;;;;;;;;;;;;;;;;;;5076422;28;20327;-80
2021/04/14 15:49:33;;;;;;;;;;;;;;;;;;5079986;28;19912;-80
2021/04/14 15:51:58;;;;;;;;;;;;;;;;;;5063131;28;20353;-80
2021/04/14 15:54:24;;;;;;;;;;;;;;;;;;5096292;28;20354;-80
2021/04/14 15:56:50;;;;;;;;;;;;;;;;;;5063209;28;20308;-79
2021/04/14 15:59:15;;;;;;;;;;;;;;;;;;5093697;28;19915;-79
2021/04/14 16:01:46;;;;;;;;;;;;;;;;;;5059313;28;19920;-79
2021/04/14 16:04:13;;;;;;;;;;;;;;;;;;5074995;28;20321;-79
2021/04/14 16:06:39;;;;;;;;;;;;;;;;;;5079249;28;19911;-80
2021/04/14 16:09:10;;;;;;;;;;;;;;;;;;5055757;28;19976;-81
2021/04/14 16:11:36;;;;;;;;;;;;;;;;;;5059506;28;19931;-82
2021/04/14 16:14:01;;;;;;;;;;;;;;;;;;5078785;28;19916;-80
2021/04/14 16:16:27;;;;;;;;;;;;;;;;;;5096810;28;19912;-81
2021/04/14 16:18:53;;;;;;;;;;;;;;;;;;5095404;28;20259;-84
2021/04/14 16:21:18;;;;;;;;;;;;;;;;;;5057759;28;19923;-81
2021/04/14 16:23:45;;;;;;;;;;;;;;;;;;5052133;28;20297;-81
2021/04/14 16:26:11;;;;;;;;;;;;;;;;;;5062821;28;19923;-80
2021/04/14 16:28:36;;;;;;;;;;;;;;;;;;5062233;28;19912;-80
2021/04/14 16:31:02;;;;;;;;;;;;;;;;;;5114553;28;19938;-80
2021/04/14 16:33:28;;;;;;;;;;;;;;;;;;5095891;28;19961;-80
2021/04/14 16:35:53;;;;;;;;;;;;;;;;;;5096446;28;19912;-80
2021/04/14 16:38:19;;;;;;;;;;;;;;;;;;5079452;28;20423;-80
2021/04/14 16:40:44;;;;;;;;;;;;;;;;;;5074949;28;19920;-80
2021/04/14 16:43:13;;;;;;;;;;;;;;;;;;5088650;28;19916;-80
2021/04/14 16:45:38;;;;;;;;;;;;;;;;;;5079401;28;20015;-81
2021/04/14 16:48:04;;;;;;;;;;;;;;;;;;5095678;28;19998;-80
2021/04/14 16:50:29;;;;;;;;;;;;;;;;;;5083807;28;19958;-80
2021/04/14 16:52:54;;;;;;;;;;;;;;;;;;5092607;28;20387;-80
2021/04/14 16:55:20;;;;;;;;;;;;;;;;;;5054848;28;19923;-80